Garland's Hourly Summary for Thursday, July 5, 2018
Hour Temp
(f)
RH
(%)
Solar Rad.
(MJ/m2)
Rainfall
(in)
Wind
(mph)
7/5/2018 12:00 AM 78 64 0 0 7.84
7/5/2018 1:00 AM 76 66 0 0 4.87
7/5/2018 2:00 AM 75 69 0 0 3
7/5/2018 3:00 AM 75 72 0 0 1.2
7/5/2018 4:00 AM 74 74 0 0 1.29
7/5/2018 5:00 AM 74 76 0 0 0.14
7/5/2018 6:00 AM 72 78 0 0 0.06
7/5/2018 7:00 AM 72 81 0.03 0 0.01
7/5/2018 8:00 AM 74 73 0.4 0 0.18
7/5/2018 9:00 AM 77 65 1.11 0 1.21
7/5/2018 10:00 AM 80 56 1.79 0 1.91
7/5/2018 11:00 AM 82 51 2.41 0 2.48
7/5/2018 12:00 PM 84 48 2.75 0 3.73
7/5/2018 1:00 PM 87 44 3.04 0 4.67
7/5/2018 2:00 PM 89 41 3.09 0 4.58
7/5/2018 3:00 PM 91 37 3.28 0 5.12
7/5/2018 4:00 PM 92 33 2.45 0 4.6
7/5/2018 5:00 PM 93 33 2.34 0 5.91
7/5/2018 6:00 PM 93 31 1.61 0 6.55
7/5/2018 7:00 PM 92 32 0.73 0 6.6
7/5/2018 8:00 PM 89 41 0.29 0 7.65
7/5/2018 9:00 PM 85 54 0.05 0 5.73
7/5/2018 10:00 PM 84 57 0 0 4.46
7/5/2018 11:00 PM 83 59 0 0 4.65
Data Summary 82 55 25.37 0.00 3.69